Terminal Aerodrome Forecast
Issued by NWS

Home | Current Version | Previous Version | Text Only | Print | Product List | Glossary On
Versions: 1 2 3 4 5 6 7 8 9 10 11 12 13 14 15 16 17 18
000
FTUS46 KLOX 210500
TAFPRB
TAF
KPRB 210534Z 2106/2206 20008KT P6SM FEW010 FEW250
     FM210800 VRB03KT 5SM BR BKN007
     FM211500 21008KT P6SM BKN012
     FM212000 21019G27KT P6SM SCT017 SCT035
     FM220500 20008KT P6SM BKN012=

USA.gov is the U.S. government's official web portal to all federal, state and local government web resources and services.